Disclaimer

Please do not use the information listed here in-flight or in-navigation, as they are not provided to us by the airports but are provided by volunteers, so they might be outdated.

Search


Regions


Airport information page

No radio frequency information is available.

Airport informations:
Latitude: 31° 38' 44.68" N
Longitude: 002° 16' 11.50" W
Elevation: 2661 feet - 811 meters
Operating hours: N/A
Operating agency: Military-civil joint use airport
Timezone: N/A
Fuel: Jet A1, without icing nhibitor.

100/130 octane gasoline, leaded, MIL-L-5572F (GREEN)

Runway information:
06/24 - 12245 x 148 feet< - >3732 x 45 meters
18/36 - 9840 x 148 feet< - >2999 x 45 meters

Recent METARs:
DAOR 130300Z 10010KT 9999 FEW033 SCT233 14/03 Q1020
DAOR 130400Z 11003KT 9999 FEW033 SCT233 14/03 Q1020
DAOR 130400Z 11003KT 9999 FEW033 SCT233 14/03 Q1020

Airport on the map: